Hicks Airfield Weather

No METAR data is available for Hicks Airfield, and nearby Alliance Airport's METAR data is commonly used by area pilots. Weather infomation is also available on 126.925 mhz.

  • Current KAFW METAR
    (5.8nm NE) VFR
    Raw Text: KAFW 120553Z 13007KT 10SM SCT250 30/21 A2992 RMK AO2 SLP114 T03000211 10361 20289 403780261 53011
    Wind: 130° @ 7kts
    Visibility: 10.0sm
    Clouds (AGL): SCT at 25000ft
    Temperature: 30.0°C
    Dew Point: 21.1°C
    Altimeter: 29.92 inHg
  • Current KAFW TAF
    (5.8nm NE)
    Raw Text: KAFW 120520Z 1206/1306 14009KT P6SM BKN250 FM121100 08010KT P6SM VCSH SCT090 BKN150 FM121500 22008KT P6SM FEW070 FM130200 15007KT P6SM FEW250